createdAt,value
2018-03-21T00:01:34.045Z,0.10
2018-03-21T00:04:00.323Z,0.10
2018-03-21T00:06:26.520Z,0.10
2018-03-21T00:08:52.771Z,0.10
2018-03-21T00:11:18.961Z,0.00
2018-03-21T00:13:45.239Z,0.00
2018-03-21T00:16:11.426Z,0.00
2018-03-21T00:18:37.608Z,-0.10
2018-03-21T00:21:03.908Z,-0.10
2018-03-21T00:23:30.109Z,-0.10
2018-03-21T00:25:56.296Z,-0.10
2018-03-21T00:28:23.373Z,-0.10
2018-03-21T00:30:49.600Z,-0.10
2018-03-21T00:33:15.824Z,-0.10
2018-03-21T00:35:42.018Z,-0.10
2018-03-21T00:38:08.196Z,-0.20
2018-03-21T00:40:34.444Z,-0.20
2018-03-21T00:43:00.634Z,-0.20
2018-03-21T00:45:26.921Z,-0.20
2018-03-21T00:47:53.134Z,-0.30
2018-03-21T00:50:19.366Z,-0.30
2018-03-21T00:52:45.557Z,-0.30
2018-03-21T00:55:11.860Z,-0.30
2018-03-21T00:57:38.835Z,-0.30
2018-03-21T01:00:05.131Z,-0.40
2018-03-21T01:02:31.419Z,-0.40
2018-03-21T01:05:04.616Z,-0.40
2018-03-21T01:07:30.889Z,-0.40
2018-03-21T01:09:57.915Z,-0.50
2018-03-21T01:12:24.129Z,-0.50
2018-03-21T01:14:50.376Z,-0.50
2018-03-21T01:17:16.626Z,-0.50
2018-03-21T01:19:43.617Z,-0.60
2018-03-21T01:22:09.802Z,-0.60
2018-03-21T01:24:36.789Z,-0.60
2018-03-21T01:27:02.974Z,-0.60
2018-03-21T01:29:29.157Z,-0.60
2018-03-21T01:31:55.442Z,-0.60
2018-03-21T01:34:22.431Z,-0.70
2018-03-21T01:36:48.703Z,-0.70
2018-03-21T01:39:14.901Z,-0.70
2018-03-21T01:41:41.116Z,-0.70
2018-03-21T01:44:07.394Z,-0.70
2018-03-21T01:46:34.435Z,-0.70
2018-03-21T01:49:00.637Z,-0.80
2018-03-21T01:51:26.827Z,-0.80
2018-03-21T01:53:53.046Z,-0.80
2018-03-21T01:56:19.278Z,-0.80
2018-03-21T01:58:45.480Z,-0.80
2018-03-21T02:01:12.425Z,-0.80
2018-03-21T02:03:38.639Z,-0.80
2018-03-21T02:06:04.896Z,-0.90
2018-03-21T02:08:31.855Z,-0.90
2018-03-21T02:10:58.083Z,-0.90
2018-03-21T02:13:24.326Z,-0.90
2018-03-21T02:15:50.569Z,-0.90
2018-03-21T02:18:16.812Z,-0.90
2018-03-21T02:20:42.997Z,-1.00
2018-03-21T02:23:09.274Z,-1.00
2018-03-21T02:25:35.474Z,-1.00
2018-03-21T02:28:01.699Z,-1.00
2018-03-21T02:30:27.917Z,-1.00
2018-03-21T02:32:54.157Z,-1.00
2018-03-21T02:35:20.354Z,-1.10
2018-03-21T02:37:47.283Z,-1.10
2018-03-21T02:40:13.538Z,-1.10
2018-03-21T02:42:40.496Z,-1.10
2018-03-21T02:45:06.930Z,-1.10
2018-03-21T02:47:33.110Z,-1.10
2018-03-21T02:49:59.313Z,-1.20
2018-03-21T02:52:25.561Z,-1.10
2018-03-21T02:54:51.824Z,-1.20
2018-03-21T02:57:18.790Z,-1.20
2018-03-21T02:59:45.008Z,-1.20
2018-03-21T03:02:12.058Z,-1.20
2018-03-21T03:04:38.987Z,-1.20
2018-03-21T03:07:05.960Z,-1.30
2018-03-21T03:09:32.248Z,-1.30
2018-03-21T03:11:59.209Z,-1.30
2018-03-21T03:14:26.132Z,-1.30
2018-03-21T03:16:52.371Z,-1.30
2018-03-21T03:19:18.580Z,-1.30
2018-03-21T03:21:44.788Z,-1.30
2018-03-21T03:24:11.008Z,-1.30
2018-03-21T03:26:37.192Z,-1.40
2018-03-21T03:29:03.407Z,-1.30
2018-03-21T03:31:29.637Z,-1.30
2018-03-21T03:33:55.846Z,-1.40
2018-03-21T03:36:22.046Z,-1.40
2018-03-21T03:38:48.236Z,-1.40
2018-03-21T03:41:14.495Z,-1.40
2018-03-21T03:43:40.723Z,-1.40
2018-03-21T03:46:07.206Z,-1.40
2018-03-21T03:48:33.390Z,-1.40
2018-03-21T03:50:59.689Z,-1.40
2018-03-21T03:53:25.906Z,-1.50
2018-03-21T03:55:52.117Z,-1.50
2018-03-21T03:58:18.305Z,-1.50
2018-03-21T04:00:44.552Z,-1.50
2018-03-21T04:03:10.786Z,-1.50
2018-03-21T04:05:37.031Z,-1.50
2018-03-21T04:08:03.324Z,-1.50
2018-03-21T04:10:29.501Z,-1.50
2018-03-21T04:12:56.499Z,-1.60
2018-03-21T04:15:22.723Z,-1.60
2018-03-21T04:17:48.905Z,-1.60
2018-03-21T04:20:15.162Z,-1.60
2018-03-21T04:22:41.438Z,-1.60
2018-03-21T04:25:07.649Z,-1.60
2018-03-21T04:27:33.832Z,-1.60
2018-03-21T04:30:00.031Z,-1.60
2018-03-21T04:32:26.217Z,-1.60
2018-03-21T04:34:53.563Z,-1.70
2018-03-21T04:37:20.548Z,-1.70
2018-03-21T04:39:46.761Z,-1.70
2018-03-21T04:42:12.984Z,-1.70
2018-03-21T04:44:39.527Z,-1.70
2018-03-21T04:47:07.892Z,-1.70
2018-03-21T04:49:34.953Z,-1.70
2018-03-21T04:52:01.607Z,-1.80
2018-03-21T04:54:28.029Z,-1.70
2018-03-21T04:56:55.402Z,-1.80
2018-03-21T04:59:21.858Z,-1.80
2018-03-21T05:01:48.102Z,-1.80
2018-03-21T05:04:14.310Z,-1.80
2018-03-21T05:06:40.561Z,-1.80
2018-03-21T05:09:06.878Z,-1.80
2018-03-21T05:11:33.094Z,-1.90
2018-03-21T05:13:59.281Z,-1.90
2018-03-21T05:16:25.462Z,-1.90
2018-03-21T05:18:58.628Z,-1.90
2018-03-21T05:21:24.834Z,-1.90
2018-03-21T05:23:51.932Z,-1.90
2018-03-21T05:26:18.158Z,-1.90
2018-03-21T05:28:44.421Z,-1.90
2018-03-21T05:31:10.628Z,-1.90
2018-03-21T05:33:36.960Z,-1.90
2018-03-21T05:36:03.192Z,-1.90
2018-03-21T05:38:29.397Z,-1.90
2018-03-21T05:40:55.592Z,-1.90
2018-03-21T05:43:21.830Z,-1.90
2018-03-21T05:45:48.864Z,-1.80
2018-03-21T05:48:15.805Z,-1.80
2018-03-21T05:50:42.106Z,-1.80
2018-03-21T05:53:08.290Z,-1.80
2018-03-21T05:55:34.514Z,-1.70
2018-03-21T05:58:00.724Z,-1.70
2018-03-21T06:00:27.675Z,-1.70
2018-03-21T06:02:54.691Z,-1.70
2018-03-21T06:05:21.629Z,-1.60
2018-03-21T06:07:47.955Z,-1.70
2018-03-21T06:10:14.143Z,-1.60
2018-03-21T06:12:40.397Z,-1.60
2018-03-21T06:15:06.782Z,-1.50
2018-03-21T06:17:33.695Z,-1.50
2018-03-21T06:20:00.354Z,-1.50
2018-03-21T06:22:26.546Z,-1.50
2018-03-21T06:24:52.827Z,-1.40
2018-03-21T06:27:19.776Z,-1.40
2018-03-21T06:29:46.889Z,-1.40
2018-03-21T06:32:13.898Z,-1.40
2018-03-21T06:34:40.104Z,-1.40
2018-03-21T06:37:07.323Z,-1.30
2018-03-21T06:39:33.536Z,-1.30
2018-03-21T06:41:59.825Z,-1.30
2018-03-21T06:44:26.040Z,-1.20
2018-03-21T06:46:52.962Z,-1.10
2018-03-21T06:49:19.187Z,-1.10
2018-03-21T06:51:45.430Z,-1.10
2018-03-21T06:54:11.677Z,-1.00
2018-03-21T06:56:38.620Z,-0.90
2018-03-21T06:59:05.588Z,-0.90
2018-03-21T07:01:31.801Z,-0.90
2018-03-21T07:03:58.812Z,-0.80
2018-03-21T07:06:25.000Z,-0.80
2018-03-21T07:08:51.280Z,-0.70
2018-03-21T07:11:18.217Z,-0.70
2018-03-21T07:13:56.678Z,-0.70
2018-03-21T07:16:35.108Z,-0.60
2018-03-21T07:19:01.354Z,-0.60
2018-03-21T07:21:27.588Z,-0.60
2018-03-21T07:23:53.868Z,-0.50
2018-03-21T07:26:20.812Z,-0.50
2018-03-21T07:28:47.863Z,-0.40
2018-03-21T07:31:14.826Z,-0.40
2018-03-21T07:33:41.029Z,-0.40
2018-03-21T07:36:08.080Z,-0.20
2018-03-21T07:38:35.112Z,-0.20
2018-03-21T07:41:01.350Z,-0.20
2018-03-21T07:43:28.296Z,-0.20
2018-03-21T07:45:55.295Z,-0.10
2018-03-21T07:48:21.621Z,-0.10
2018-03-21T07:50:47.964Z,-0.10
2018-03-21T07:53:14.172Z,0.00
2018-03-21T07:55:40.427Z,0.00
2018-03-21T07:58:06.837Z,0.00
2018-03-21T08:00:33.082Z,0.00
2018-03-21T08:02:59.274Z,0.10
2018-03-21T08:05:26.234Z,0.20
2018-03-21T08:07:52.437Z,0.20
2018-03-21T08:10:19.377Z,0.30
2018-03-21T08:12:46.344Z,0.40
2018-03-21T08:15:12.549Z,0.40
2018-03-21T08:17:38.814Z,0.40
2018-03-21T08:20:05.030Z,0.50
2018-03-21T08:22:31.201Z,0.50
2018-03-21T08:24:57.411Z,0.60
2018-03-21T08:27:23.608Z,0.60
2018-03-21T08:29:50.615Z,0.70
2018-03-21T08:32:16.852Z,0.70
2018-03-21T08:34:43.022Z,0.80
2018-03-21T08:37:09.204Z,0.90
2018-03-21T08:39:35.462Z,0.90
2018-03-21T08:42:02.485Z,1.10
2018-03-21T08:44:28.725Z,1.10
2018-03-21T08:46:55.661Z,1.30
2018-03-21T08:49:21.900Z,1.30
2018-03-21T08:51:48.096Z,1.30
2018-03-21T08:54:14.301Z,1.40
2018-03-21T08:56:40.588Z,1.40
2018-03-21T08:59:07.769Z,1.60
2018-03-21T09:01:34.054Z,1.60
2018-03-21T09:04:00.338Z,1.60
2018-03-21T09:06:26.541Z,1.70
2018-03-21T09:08:53.494Z,1.70
2018-03-21T09:11:19.782Z,1.70
2018-03-21T09:13:45.987Z,1.70
2018-03-21T09:16:12.508Z,1.80
2018-03-21T09:18:38.709Z,1.80
2018-03-21T09:21:05.645Z,2.00
2018-03-21T09:23:32.598Z,2.00
2018-03-21T09:25:59.594Z,2.00
2018-03-21T09:28:25.765Z,2.00
2018-03-21T09:30:52.065Z,2.10
2018-03-21T09:33:18.257Z,2.20
2018-03-21T09:35:44.479Z,2.20
2018-03-21T09:38:10.654Z,2.20
2018-03-21T09:40:36.941Z,2.30
2018-03-21T09:43:03.126Z,2.30
2018-03-21T09:45:29.354Z,2.30
2018-03-21T09:47:55.573Z,2.40
2018-03-21T09:50:21.828Z,2.40
2018-03-21T09:52:48.836Z,2.60
2018-03-21T09:55:15.112Z,2.50
2018-03-21T09:57:41.260Z,2.60
2018-03-21T10:00:07.736Z,2.70
2018-03-21T10:02:33.936Z,2.80
2018-03-21T10:05:00.123Z,2.80
2018-03-21T10:07:27.058Z,3.00
2018-03-21T10:09:53.436Z,3.00
2018-03-21T10:12:19.859Z,3.00
2018-03-21T10:14:46.125Z,3.10
2018-03-21T10:17:12.360Z,3.20
2018-03-21T10:19:38.639Z,3.30
2018-03-21T10:22:04.845Z,3.40
2018-03-21T10:24:31.054Z,3.50
2018-03-21T10:26:57.259Z,3.60
2018-03-21T10:29:23.543Z,3.70
2018-03-21T10:31:49.783Z,3.80
2018-03-21T10:34:16.844Z,3.90
2018-03-21T10:36:43.052Z,3.90
2018-03-21T10:39:09.283Z,4.00
2018-03-21T10:41:36.254Z,4.10
2018-03-21T10:44:02.554Z,4.10
2018-03-21T10:46:29.527Z,4.30
2018-03-21T10:48:55.742Z,4.20
2018-03-21T10:51:21.945Z,4.40
2018-03-21T10:53:48.140Z,4.50
2018-03-21T10:56:14.337Z,4.50
2018-03-21T10:58:40.554Z,4.60
2018-03-21T11:01:12.796Z,4.70
2018-03-21T11:03:39.090Z,4.80
2018-03-21T11:06:05.304Z,4.90
2018-03-21T11:08:31.502Z,5.00
2018-03-21T11:10:58.513Z,5.10
2018-03-21T11:13:25.468Z,5.20
2018-03-21T11:15:51.730Z,5.20
2018-03-21T11:18:17.937Z,5.30
2018-03-21T11:20:51.124Z,5.30
2018-03-21T11:23:17.334Z,5.40
2018-03-21T11:25:43.612Z,5.40
2018-03-21T11:28:09.742Z,5.60
2018-03-21T11:30:35.908Z,5.60
2018-03-21T11:33:02.138Z,5.60
2018-03-21T11:35:28.463Z,5.70
2018-03-21T11:37:54.711Z,5.70
2018-03-21T11:40:20.904Z,5.80
2018-03-21T11:42:47.275Z,5.80
2018-03-21T11:45:13.445Z,5.80
2018-03-21T11:47:39.725Z,5.90
2018-03-21T11:50:05.951Z,5.90
2018-03-21T11:52:32.220Z,5.90
2018-03-21T11:54:58.489Z,6.00
2018-03-21T11:57:24.723Z,6.00
2018-03-21T11:59:50.927Z,6.10
2018-03-21T12:02:17.227Z,6.10
2018-03-21T12:04:43.422Z,6.10
2018-03-21T12:07:09.732Z,6.20
2018-03-21T12:09:35.921Z,6.20
2018-03-21T12:12:02.970Z,6.40
2018-03-21T12:14:35.946Z,6.30
2018-03-21T12:17:02.159Z,6.30
2018-03-21T12:19:28.400Z,6.40
2018-03-21T12:21:54.622Z,6.40
2018-03-21T12:24:20.831Z,6.50
2018-03-21T12:26:47.104Z,6.50
2018-03-21T12:29:14.046Z,6.50
2018-03-21T12:31:40.231Z,6.50
2018-03-21T12:34:06.444Z,6.50
2018-03-21T12:36:32.665Z,6.60
2018-03-21T12:38:58.975Z,6.60
2018-03-21T12:41:25.904Z,6.70
2018-03-21T12:43:52.138Z,6.70
2018-03-21T12:46:19.160Z,6.70
2018-03-21T12:48:45.323Z,6.60
2018-03-21T12:51:12.302Z,6.70
2018-03-21T12:53:38.498Z,6.70
2018-03-21T12:56:04.729Z,6.70
2018-03-21T12:58:31.693Z,6.70
2018-03-21T13:00:57.900Z,6.70
2018-03-21T13:03:24.900Z,6.80
2018-03-21T13:05:51.246Z,6.80
2018-03-21T13:08:17.438Z,6.80
2018-03-21T13:10:43.658Z,6.80
2018-03-21T13:13:09.885Z,6.90
2018-03-21T13:15:36.102Z,6.90
2018-03-21T13:18:03.082Z,6.90
2018-03-21T13:20:29.350Z,6.90
2018-03-21T13:22:55.674Z,6.90
2018-03-21T13:25:21.882Z,7.00
2018-03-21T13:27:48.138Z,7.10
2018-03-21T13:30:14.311Z,7.10
2018-03-21T13:32:40.599Z,7.10
2018-03-21T13:35:06.772Z,7.10
2018-03-21T13:37:32.978Z,7.00
2018-03-21T13:39:59.207Z,7.00
2018-03-21T13:42:26.118Z,7.10
2018-03-21T13:44:52.367Z,7.10
2018-03-21T13:47:18.560Z,7.20
2018-03-21T13:49:44.730Z,7.20
2018-03-21T13:52:11.661Z,7.30
2018-03-21T13:54:37.848Z,7.30
2018-03-21T13:57:04.074Z,7.40
2018-03-21T13:59:30.290Z,7.40
2018-03-21T14:01:56.569Z,7.30
2018-03-21T14:04:22.847Z,7.30
2018-03-21T14:06:49.035Z,7.30
2018-03-21T14:09:15.244Z,7.40
2018-03-21T14:11:41.469Z,7.40
2018-03-21T14:14:07.929Z,7.40
2018-03-21T14:16:34.347Z,7.40
2018-03-21T14:19:00.574Z,7.40
2018-03-21T14:21:26.746Z,7.50
2018-03-21T14:23:53.765Z,7.30
2018-03-21T14:26:19.976Z,7.30
2018-03-21T14:28:46.162Z,7.40
2018-03-21T14:31:12.393Z,7.40
2018-03-21T14:33:38.626Z,7.50
2018-03-21T14:36:04.843Z,7.50
2018-03-21T14:38:31.112Z,7.50
2018-03-21T14:40:57.332Z,7.50
2018-03-21T14:43:23.572Z,7.50
2018-03-21T14:45:49.777Z,7.50
2018-03-21T14:48:15.954Z,7.40
2018-03-21T14:50:42.141Z,7.40
2018-03-21T14:53:08.324Z,7.30
2018-03-21T14:55:35.321Z,7.30
2018-03-21T14:58:01.508Z,7.30
2018-03-21T15:00:28.474Z,7.10
2018-03-21T15:02:54.675Z,7.10
2018-03-21T15:05:21.641Z,7.10
2018-03-21T15:07:47.849Z,7.00
2018-03-21T15:10:14.814Z,7.00
2018-03-21T15:12:41.861Z,7.00
2018-03-21T15:15:08.807Z,7.00
2018-03-21T15:17:35.048Z,7.00
2018-03-21T15:20:01.296Z,7.00
2018-03-21T15:22:27.600Z,6.90
2018-03-21T15:24:53.843Z,6.90
2018-03-21T15:27:20.136Z,6.80
2018-03-21T15:29:46.306Z,6.70
2018-03-21T15:32:12.542Z,6.70
2018-03-21T15:34:38.751Z,6.60
2018-03-21T15:37:05.056Z,6.60
2018-03-21T15:39:31.989Z,6.60
2018-03-21T15:41:58.926Z,6.50
2018-03-21T15:44:25.210Z,6.50
2018-03-21T15:46:51.414Z,6.50
2018-03-21T15:49:18.385Z,6.40
2018-03-21T15:51:44.602Z,6.40
2018-03-21T15:54:10.780Z,6.40
2018-03-21T15:56:36.986Z,6.30
2018-03-21T15:59:03.216Z,6.30
2018-03-21T16:01:29.418Z,6.30
2018-03-21T16:03:55.671Z,6.30
2018-03-21T16:06:21.868Z,6.20
2018-03-21T16:08:48.162Z,6.20
2018-03-21T16:11:14.411Z,6.20
2018-03-21T16:13:41.374Z,6.10
2018-03-21T16:16:07.876Z,6.20
2018-03-21T16:18:34.108Z,6.10
2018-03-21T16:21:00.355Z,6.10
2018-03-21T16:23:27.301Z,6.10
2018-03-21T16:25:54.287Z,6.10
2018-03-21T16:28:20.626Z,6.00
2018-03-21T16:30:46.862Z,6.10
2018-03-21T16:33:13.073Z,6.00
2018-03-21T16:35:39.290Z,6.00
2018-03-21T16:38:05.561Z,6.00
2018-03-21T16:40:31.766Z,6.00
2018-03-21T16:42:58.183Z,6.00
2018-03-21T16:45:24.378Z,6.00
2018-03-21T16:47:51.340Z,5.90
2018-03-21T16:50:17.524Z,5.90
2018-03-21T16:52:43.785Z,5.90
2018-03-21T16:55:10.720Z,5.90
2018-03-21T16:57:37.725Z,5.90
2018-03-21T17:00:04.050Z,5.90
2018-03-21T17:02:30.269Z,5.90
2018-03-21T17:04:56.497Z,5.80
2018-03-21T17:07:22.665Z,5.80
2018-03-21T17:09:48.846Z,5.80
2018-03-21T17:12:15.061Z,5.80
2018-03-21T17:14:42.031Z,5.70
2018-03-21T17:17:08.240Z,5.70
2018-03-21T17:19:34.437Z,5.70
2018-03-21T17:22:00.649Z,5.60
2018-03-21T17:24:26.849Z,5.70
2018-03-21T17:26:53.042Z,5.60
2018-03-21T17:29:27.077Z,5.60
2018-03-21T17:31:53.401Z,5.60
2018-03-21T17:34:19.588Z,5.60
2018-03-21T17:36:45.772Z,5.60
2018-03-21T17:39:11.993Z,5.50
2018-03-21T17:41:38.238Z,5.50
2018-03-21T17:44:04.436Z,5.50
2018-03-21T17:46:30.639Z,5.40
2018-03-21T17:48:57.624Z,5.40
2018-03-21T17:51:23.839Z,5.30
2018-03-21T17:53:50.810Z,5.30
2018-03-21T17:56:17.023Z,5.20
2018-03-21T17:58:43.321Z,5.20
2018-03-21T18:01:10.264Z,5.10
2018-03-21T18:03:36.502Z,5.10
2018-03-21T18:06:03.525Z,5.10
2018-03-21T18:08:29.705Z,5.00
2018-03-21T18:10:56.016Z,5.00
2018-03-21T18:13:22.956Z,5.00
2018-03-21T18:15:49.897Z,5.00
2018-03-21T18:18:16.987Z,4.90
2018-03-21T18:20:43.323Z,4.90
2018-03-21T18:23:09.534Z,4.90
2018-03-21T18:25:35.804Z,4.90
2018-03-21T18:28:02.115Z,4.80
2018-03-21T18:30:28.320Z,4.80
2018-03-21T18:32:54.557Z,4.70
2018-03-21T18:35:20.758Z,4.70
2018-03-21T18:37:47.716Z,4.70
2018-03-21T18:40:13.890Z,4.70
2018-03-21T18:42:40.074Z,4.60
2018-03-21T18:45:06.313Z,4.60
2018-03-21T18:47:32.535Z,4.60
2018-03-21T18:49:58.742Z,4.60
2018-03-21T18:52:25.684Z,4.60
2018-03-21T18:54:51.995Z,4.50
2018-03-21T18:57:18.165Z,4.60
2018-03-21T18:59:44.422Z,4.50
2018-03-21T19:02:10.712Z,4.50
2018-03-21T19:04:37.731Z,4.50
2018-03-21T19:07:03.922Z,4.50
2018-03-21T19:09:30.167Z,4.50
2018-03-21T19:11:56.352Z,4.50
2018-03-21T19:14:23.288Z,4.40
2018-03-21T19:16:50.270Z,4.40
2018-03-21T19:19:16.476Z,4.40
2018-03-21T19:21:43.460Z,4.40
2018-03-21T19:24:09.672Z,4.40
2018-03-21T19:26:35.918Z,4.40
2018-03-21T19:29:14.691Z,4.40
2018-03-21T19:31:42.079Z,4.40
2018-03-21T19:34:08.303Z,4.40
2018-03-21T19:36:34.517Z,4.40
2018-03-21T19:39:01.476Z,4.40
2018-03-21T19:41:27.721Z,4.30
2018-03-21T19:43:53.932Z,4.30
2018-03-21T19:46:20.176Z,4.30
2018-03-21T19:48:46.516Z,4.30
2018-03-21T19:51:12.792Z,4.30
2018-03-21T19:53:38.936Z,4.30
2018-03-21T19:56:05.990Z,4.30
2018-03-21T19:58:32.957Z,4.20
2018-03-21T20:00:59.228Z,4.20
2018-03-21T20:03:25.434Z,4.20
2018-03-21T20:05:51.705Z,4.20
2018-03-21T20:08:17.946Z,4.20
2018-03-21T20:10:44.916Z,4.10
2018-03-21T20:13:11.146Z,4.10
2018-03-21T20:15:37.389Z,4.10
2018-03-21T20:18:03.607Z,4.00
2018-03-21T20:20:29.821Z,4.00
2018-03-21T20:22:56.035Z,4.00
2018-03-21T20:25:22.975Z,3.90
2018-03-21T20:27:49.189Z,3.90
2018-03-21T20:30:15.382Z,3.90
2018-03-21T20:32:41.607Z,3.90
2018-03-21T20:35:08.026Z,3.90
2018-03-21T20:37:34.247Z,3.80
2018-03-21T20:40:00.434Z,3.80
2018-03-21T20:42:26.689Z,3.80
2018-03-21T20:44:53.665Z,3.80
2018-03-21T20:47:19.879Z,3.80
2018-03-21T20:49:46.051Z,3.80
2018-03-21T20:52:12.285Z,3.80
2018-03-21T20:54:38.503Z,3.80
2018-03-21T20:57:04.682Z,3.70
2018-03-21T20:59:31.606Z,3.70
2018-03-21T21:01:57.801Z,3.70
2018-03-21T21:04:24.799Z,3.60
2018-03-21T21:06:51.756Z,3.60
2018-03-21T21:09:17.957Z,3.60
2018-03-21T21:11:44.950Z,3.60
2018-03-21T21:14:11.153Z,3.60
2018-03-21T21:16:38.085Z,3.60
2018-03-21T21:19:05.055Z,3.60
2018-03-21T21:21:31.258Z,3.60
2018-03-21T21:23:57.499Z,3.60
2018-03-21T21:26:24.433Z,3.50
2018-03-21T21:28:50.642Z,3.50
2018-03-21T21:31:16.849Z,3.50
2018-03-21T21:33:43.820Z,3.40
2018-03-21T21:36:10.010Z,3.40
2018-03-21T21:38:36.226Z,3.40
2018-03-21T21:41:02.414Z,3.40
2018-03-21T21:43:28.630Z,3.40
2018-03-21T21:45:54.869Z,3.40
2018-03-21T21:48:21.087Z,3.40
2018-03-21T21:50:47.339Z,3.40
2018-03-21T21:53:14.254Z,3.40
2018-03-21T21:55:42.218Z,3.30
2018-03-21T21:58:08.430Z,3.30
2018-03-21T22:00:34.698Z,3.30
2018-03-21T22:03:00.895Z,3.30
2018-03-21T22:05:27.148Z,3.30
2018-03-21T22:07:53.412Z,3.30
2018-03-21T22:10:20.368Z,3.30
2018-03-21T22:12:46.562Z,3.30
2018-03-21T22:15:12.772Z,3.40
2018-03-21T22:17:38.965Z,3.30
2018-03-21T22:20:05.176Z,3.30
2018-03-21T22:22:31.383Z,3.30
2018-03-21T22:24:58.349Z,3.30
2018-03-21T22:27:24.641Z,3.30
2018-03-21T22:29:50.833Z,3.30
2018-03-21T22:32:17.052Z,3.30
2018-03-21T22:34:43.250Z,3.30
2018-03-21T22:37:10.313Z,3.20
2018-03-21T22:39:37.255Z,3.30
2018-03-21T22:42:04.208Z,3.20
2018-03-21T22:44:30.377Z,3.20
2018-03-21T22:46:56.578Z,3.20
2018-03-21T22:49:22.765Z,3.20
2018-03-21T22:51:48.986Z,3.20
2018-03-21T22:54:15.184Z,3.20
2018-03-21T22:56:41.385Z,3.20
2018-03-21T22:59:07.736Z,3.20
2018-03-21T23:01:33.913Z,3.20
2018-03-21T23:04:00.129Z,3.20
2018-03-21T23:06:26.326Z,3.20
2018-03-21T23:08:52.589Z,3.20
2018-03-21T23:11:18.764Z,3.20
2018-03-21T23:13:45.044Z,3.20
2018-03-21T23:16:11.218Z,3.20
2018-03-21T23:18:37.452Z,3.20
2018-03-21T23:21:03.705Z,3.20
2018-03-21T23:23:30.367Z,3.20
2018-03-21T23:25:56.560Z,3.20
2018-03-21T23:28:22.824Z,3.20
2018-03-21T23:30:49.000Z,3.20
2018-03-21T23:33:15.193Z,3.20
2018-03-21T23:35:41.400Z,3.20
2018-03-21T23:38:07.772Z,3.20
2018-03-21T23:40:34.093Z,3.20
2018-03-21T23:43:01.019Z,3.20
2018-03-21T23:45:27.215Z,3.20
2018-03-21T23:47:53.410Z,3.20
2018-03-21T23:50:19.602Z,3.20
2018-03-21T23:52:45.834Z,3.20
2018-03-21T23:55:12.054Z,3.20
2018-03-21T23:57:38.993Z,3.20
